Time;durP1;ratioP1;P1;durP2;ratioP2;P2;SDS_P1;SDS_P2;PMS_P1;PMS_P2;Temp;Humidity;BMP_temperature;BMP_pressure;BME280_temperature;BME280_humidity;BME280_pressure;Samples;Min_cycle;Max_cycle;Signal;HPM_P1;HPM_P2
2022/07/26 00:02:02;;;;;;;9.93;2.83;;;24.00;77.50;;;;;;5055722;28;20374;-67
2022/07/26 00:04:28;;;;;;;8.38;2.35;;;24.00;77.60;;;;;;5055649;28;20062;-68
2022/07/26 00:06:54;;;;;;;14.52;2.88;;;24.00;77.80;;;;;;5055520;28;20037;-67
2022/07/26 00:09:20;;;;;;;9.93;2.95;;;24.00;77.80;;;;;;5053894;28;20065;-70
2022/07/26 00:11:45;;;;;;;10.73;2.45;;;23.90;78.30;;;;;;5054939;28;20029;-68
2022/07/26 00:14:11;;;;;;;8.98;2.85;;;24.00;78.40;;;;;;5055471;28;20018;-73
2022/07/26 00:16:37;;;;;;;10.52;2.30;;;23.90;78.40;;;;;;5054150;28;20470;-71
2022/07/26 00:19:03;;;;;;;11.95;2.53;;;23.90;78.60;;;;;;5055387;28;20159;-69
2022/07/26 00:21:29;;;;;;;14.25;2.60;;;23.90;78.60;;;;;;5055218;28;20032;-67
2022/07/26 00:23:55;;;;;;;8.80;2.58;;;23.90;78.90;;;;;;5055027;28;20029;-73
2022/07/26 00:26:21;;;;;;;12.77;3.05;;;23.90;79.00;;;;;;5055103;28;20040;-68
2022/07/26 00:28:47;;;;;;;10.32;3.15;;;23.80;79.20;;;;;;5055330;28;20374;-67
2022/07/26 00:31:13;;;;;;;13.10;2.95;;;23.90;79.40;;;;;;5054868;28;20485;-67
2022/07/26 00:33:39;;;;;;;13.98;3.03;;;23.90;79.40;;;;;;5055290;28;20025;-73
2022/07/26 00:36:05;;;;;;;11.23;3.17;;;23.80;79.50;;;;;;5054766;28;20045;-68
2022/07/26 00:38:30;;;;;;;10.88;2.80;;;23.80;79.50;;;;;;5054814;28;20017;-67
2022/07/26 00:40:56;;;;;;;15.02;2.65;;;23.90;79.70;;;;;;5054730;28;20409;-72
2022/07/26 00:43:21;;;;;;;11.18;2.72;;;23.90;79.60;;;;;;5054993;28;20021;-69
2022/07/26 00:45:49;;;;;;;17.10;3.30;;;23.80;79.80;;;;;;5054771;28;20033;-70
2022/07/26 00:48:14;;;;;;;12.20;2.85;;;23.80;79.90;;;;;;5054900;28;20081;-67
2022/07/26 00:50:40;;;;;;;11.48;3.20;;;23.80;80.20;;;;;;5051935;28;20120;-68
2022/07/26 00:53:06;;;;;;;13.05;3.30;;;23.80;80.20;;;;;;5042163;28;20055;-67
2022/07/26 00:55:31;;;;;;;13.50;3.55;;;23.80;80.30;;;;;;5035913;28;20076;-69
2022/07/26 00:57:59;;;;;;;12.25;2.78;;;23.80;80.50;;;;;;5030494;28;20032;-67
2022/07/26 01:00:26;;;;;;;10.32;3.15;;;23.80;80.50;;;;;;5033634;28;20029;-71
2022/07/26 01:02:52;;;;;;;11.38;3.00;;;23.70;80.90;;;;;;5034736;28;20079;-72
2022/07/26 01:05:18;;;;;;;13.45;3.25;;;23.70;81.10;;;;;;5034127;28;20017;-68
2022/07/26 01:07:45;;;;;;;11.50;3.65;;;23.70;81.30;;;;;;5034475;28;20449;-67
2022/07/26 01:10:11;;;;;;;14.05;3.03;;;23.70;81.30;;;;;;5034537;28;20036;-71
2022/07/26 01:12:41;;;;;;;12.25;2.58;;;23.70;81.60;;;;;;5034154;28;20028;-67
2022/07/26 01:15:09;;;;;;;14.73;2.72;;;23.70;82.10;;;;;;5034303;28;20079;-73
2022/07/26 01:17:34;;;;;;;13.07;3.53;;;23.70;82.50;;;;;;5034295;28;20096;-71
2022/07/26 01:20:00;;;;;;;13.48;3.15;;;23.70;82.70;;;;;;5034111;28;20096;-73
2022/07/26 01:22:25;;;;;;;10.23;3.00;;;23.60;82.80;;;;;;5033235;28;20072;-72
2022/07/26 01:24:51;;;;;;;11.90;3.15;;;23.60;82.90;;;;;;5034409;28;20466;-73
2022/07/26 01:27:16;;;;;;;11.95;3.22;;;23.70;82.90;;;;;;5033735;28;20457;-72
2022/07/26 01:29:42;;;;;;;12.88;3.20;;;23.70;82.90;;;;;;5034023;28;20033;-72
2022/07/26 01:32:08;;;;;;;12.15;3.47;;;23.60;83.00;;;;;;5033945;28;20033;-72
2022/07/26 01:34:33;;;;;;;13.88;3.63;;;23.60;83.20;;;;;;5034323;28;20112;-72
2022/07/26 01:36:59;;;;;;;13.68;3.22;;;23.60;83.20;;;;;;5043983;28;20040;-72
2022/07/26 01:39:25;;;;;;;14.23;3.40;;;23.60;83.30;;;;;;5033653;28;20025;-68
2022/07/26 01:41:50;;;;;;;20.10;4.20;;;23.60;83.60;;;;;;5032732;28;20029;-69
2022/07/26 01:44:16;;;;;;;15.20;4.18;;;23.60;83.60;;;;;;5033524;28;20032;-66
2022/07/26 01:46:41;;;;;;;13.07;3.45;;;23.60;83.70;;;;;;5033675;28;20044;-67
2022/07/26 01:49:08;;;;;;;16.23;4.45;;;23.50;83.80;;;;;;5033397;28;20107;-67
2022/07/26 01:51:34;;;;;;;10.20;3.28;;;23.50;84.10;;;;;;5033760;28;20036;-67
2022/07/26 01:54:01;;;;;;;12.50;3.60;;;23.40;84.10;;;;;;5033716;28;20018;-68
2022/07/26 01:56:26;;;;;;;14.70;3.45;;;23.50;84.30;;;;;;5033378;28;20501;-67
2022/07/26 01:58:52;;;;;;;13.57;3.42;;;23.50;84.50;;;;;;5033971;28;20032;-67
2022/07/26 02:01:17;;;;;;;10.05;3.75;;;23.50;84.50;;;;;;5033541;28;20378;-67
2022/07/26 02:03:43;;;;;;;15.73;3.45;;;23.50;84.50;;;;;;5033145;28;20017;-67
2022/07/26 02:06:09;;;;;;;10.98;3.50;;;23.40;84.50;;;;;;5033453;28;20525;-67
2022/07/26 02:08:34;;;;;;;16.42;3.85;;;23.40;84.60;;;;;;5033210;28;20021;-67
2022/07/26 02:11:00;;;;;;;17.38;4.38;;;23.40;84.70;;;;;;5033558;28;20031;-68
2022/07/26 02:13:29;;;;;;;12.23;3.38;;;23.40;84.70;;;;;;5033336;28;20346;-66
2022/07/26 02:15:57;;;;;;;13.05;3.42;;;23.40;84.80;;;;;;5033531;28;20048;-66
2022/07/26 02:18:24;;;;;;;13.85;3.70;;;23.40;84.80;;;;;;5032919;28;20036;-67
2022/07/26 02:20:49;;;;;;;19.85;4.15;;;23.40;85.00;;;;;;5032075;28;20025;-67
2022/07/26 02:23:15;;;;;;;13.50;3.88;;;23.40;85.00;;;;;;5031870;28;20036;-69
2022/07/26 02:25:40;;;;;;;14.57;4.35;;;23.40;85.10;;;;;;5033327;28;20018;-67
2022/07/26 02:28:06;;;;;;;16.77;4.32;;;23.30;85.50;;;;;;5032906;28;20457;-67
2022/07/26 02:30:32;;;;;;;11.13;3.50;;;23.40;85.60;;;;;;5033297;28;20025;-72
2022/07/26 02:32:57;;;;;;;13.85;3.80;;;23.40;85.90;;;;;;5032888;28;20025;-73
2022/07/26 02:35:23;;;;;;;14.25;3.83;;;23.40;85.90;;;;;;5032821;28;20055;-73
2022/07/26 02:37:49;;;;;;;12.98;4.30;;;23.30;86.00;;;;;;5032867;28;20060;-72
2022/07/26 02:40:14;;;;;;;15.75;4.45;;;23.30;86.10;;;;;;5033136;28;20040;-73
2022/07/26 02:42:40;;;;;;;16.58;4.20;;;23.40;86.20;;;;;;5033100;28;20025;-73
2022/07/26 02:45:06;;;;;;;13.43;4.05;;;23.30;86.40;;;;;;5032978;28;20127;-73
2022/07/26 02:47:31;;;;;;;17.02;4.53;;;23.30;86.80;;;;;;5032547;28;20029;-72
2022/07/26 02:49:58;;;;;;;16.88;4.10;;;23.30;87.30;;;;;;5032958;28;20026;-73
2022/07/26 02:52:23;;;;;;;14.00;4.30;;;23.30;87.30;;;;;;5032903;28;20051;-73
2022/07/26 02:54:49;;;;;;;14.80;3.97;;;23.30;87.60;;;;;;5032948;28;20075;-73
2022/07/26 02:57:14;;;;;;;13.57;3.53;;;23.30;87.90;;;;;;5032996;28;20482;-72
2022/07/26 02:59:40;;;;;;;16.50;4.75;;;23.30;87.80;;;;;;5032889;28;20064;-73
2022/07/26 03:02:06;;;;;;;15.32;4.80;;;23.30;88.00;;;;;;5032501;28;20368;-72
2022/07/26 03:04:32;;;;;;;15.18;4.20;;;23.30;87.90;;;;;;5032698;28;20032;-72
2022/07/26 03:06:57;;;;;;;14.77;4.22;;;23.20;88.10;;;;;;5032996;28;20496;-73
2022/07/26 03:09:23;;;;;;;15.52;5.25;;;23.20;88.40;;;;;;5032456;28;20044;-73
2022/07/26 03:11:48;;;;;;;17.13;4.80;;;23.20;88.40;;;;;;5032970;28;20041;-73
2022/07/26 03:14:14;;;;;;;12.95;4.38;;;23.20;88.40;;;;;;5032622;28;20084;-73
2022/07/26 03:16:40;;;;;;;14.65;4.43;;;23.20;88.30;;;;;;5032604;28;20076;-74
2022/07/26 03:19:05;;;;;;;19.48;4.65;;;23.20;88.40;;;;;;5032553;28;20025;-73
2022/07/26 03:21:31;;;;;;;17.48;4.57;;;23.20;88.40;;;;;;5032790;28;20025;-73
2022/07/26 03:23:56;;;;;;;14.73;4.35;;;23.20;88.40;;;;;;5032531;28;20105;-70
2022/07/26 03:26:22;;;;;;;15.75;4.38;;;23.20;88.50;;;;;;5032434;28;20052;-73
2022/07/26 03:28:48;;;;;;;13.55;4.53;;;23.20;88.60;;;;;;5032642;28;20383;-73
2022/07/26 03:31:13;;;;;;;15.20;4.80;;;23.10;88.70;;;;;;5032409;28;20029;-72
2022/07/26 03:33:39;;;;;;;14.45;4.45;;;23.10;88.80;;;;;;5032496;28;20072;-72
2022/07/26 03:36:06;;;;;;;16.73;4.68;;;23.10;89.00;;;;;;5032394;28;20041;-73
2022/07/26 03:38:31;;;;;;;17.48;4.85;;;23.10;89.00;;;;;;5032341;28;20032;-74
2022/07/26 03:40:57;;;;;;;14.10;4.28;;;23.10;89.00;;;;;;5032710;28;20026;-73
2022/07/26 03:43:23;;;;;;;16.42;4.65;;;23.10;89.30;;;;;;5032465;28;20517;-71
2022/07/26 03:45:48;;;;;;;15.13;4.15;;;23.10;89.20;;;;;;5032956;28;20535;-74
2022/07/26 03:48:14;;;;;;;17.70;4.85;;;23.10;89.20;;;;;;5034799;28;20044;-72
2022/07/26 03:50:40;;;;;;;13.27;4.57;;;23.10;89.10;;;;;;5035924;28;20022;-68
2022/07/26 03:53:06;;;;;;;20.25;5.22;;;23.00;89.40;;;;;;5034656;28;20070;-66
2022/07/26 03:58:17;;;;;;;20.05;5.15;;;23.00;89.80;;;;;;5036126;28;20052;-72
2022/07/26 04:00:43;;;;;;;16.00;4.93;;;22.90;90.00;;;;;;5035360;28;20463;-73
2022/07/26 04:03:09;;;;;;;16.08;4.53;;;23.00;90.00;;;;;;5035766;28;20021;-67
2022/07/26 04:05:34;;;;;;;15.00;4.40;;;23.00;90.00;;;;;;5035571;28;20036;-71
2022/07/26 04:08:00;;;;;;;13.70;4.60;;;23.00;90.10;;;;;;5035706;28;20035;-71
2022/07/26 04:10:26;;;;;;;17.13;4.93;;;22.90;90.20;;;;;;5035583;28;20028;-73
2022/07/26 04:12:51;;;;;;;12.55;4.38;;;22.90;90.20;;;;;;5035611;28;20030;-73
2022/07/26 04:15:17;;;;;;;14.07;4.78;;;23.00;90.20;;;;;;5034954;28;20025;-71
2022/07/26 04:17:44;;;;;;;20.10;5.22;;;22.90;90.10;;;;;;5035791;28;20072;-71
2022/07/26 04:20:10;;;;;;;13.90;4.13;;;22.90;90.10;;;;;;5035788;28;20113;-72
2022/07/26 04:22:37;;;;;;;16.80;5.15;;;22.90;90.10;;;;;;5035521;28;20029;-69
2022/07/26 04:25:05;;;;;;;15.48;4.70;;;22.90;90.20;;;;;;5035404;28;20025;-70
2022/07/26 04:27:31;;;;;;;13.45;4.75;;;22.90;90.30;;;;;;5035241;28;20049;-70
2022/07/26 04:29:56;;;;;;;13.70;4.97;;;22.90;90.30;;;;;;5034870;28;20534;-72
2022/07/26 04:32:22;;;;;;;17.05;5.70;;;22.90;90.40;;;;;;5035382;28;20061;-72
2022/07/26 04:34:48;;;;;;;11.95;4.18;;;22.90;90.40;;;;;;5035226;28;20040;-70
2022/07/26 04:37:13;;;;;;;14.80;5.07;;;22.90;90.40;;;;;;5035051;28;20030;-73
2022/07/26 04:39:57;;;;;;;15.63;5.60;;;22.90;90.40;;;;;;5013934;28;20053;-72
2022/07/26 04:42:23;;;;;;;13.95;4.68;;;22.80;90.40;;;;;;5035062;28;20018;-67
2022/07/26 04:44:48;;;;;;;18.92;5.75;;;22.80;90.50;;;;;;5034943;28;20056;-69
2022/07/26 04:47:14;;;;;;;11.85;4.10;;;22.80;90.50;;;;;;5034964;28;20070;-67
2022/07/26 04:49:40;;;;;;;11.98;4.25;;;22.80;90.50;;;;;;5034992;28;20017;-66
2022/07/26 04:52:05;;;;;;;13.10;4.35;;;22.80;90.50;;;;;;5034888;28;20441;-67
2022/07/26 04:54:31;;;;;;;13.07;3.97;;;22.80;90.50;;;;;;5034981;28;20026;-67
2022/07/26 04:56:56;;;;;;;12.63;4.07;;;22.90;90.50;;;;;;5034525;28;20037;-67
2022/07/26 04:59:22;;;;;;;15.15;4.50;;;22.90;90.50;;;;;;5034581;28;20032;-67
2022/07/26 05:01:47;;;;;;;14.23;4.30;;;22.80;90.60;;;;;;5035168;28;20426;-66
2022/07/26 05:04:13;;;;;;;12.52;4.35;;;22.80;90.50;;;;;;5035099;28;20475;-67
2022/07/26 05:06:38;;;;;;;16.25;4.63;;;22.80;90.40;;;;;;5032455;28;20044;-67
2022/07/26 05:09:04;;;;;;;13.43;3.85;;;22.80;90.10;;;;;;5033164;28;20017;-68
2022/07/26 05:11:29;;;;;;;10.05;4.35;;;22.80;90.00;;;;;;5034430;28;20030;-66
2022/07/26 05:13:55;;;;;;;14.45;4.45;;;22.90;89.60;;;;;;5033681;28;20079;-66
2022/07/26 05:16:20;;;;;;;19.50;4.65;;;22.90;89.40;;;;;;5032531;28;20029;-67
2022/07/26 05:18:46;;;;;;;14.82;4.70;;;23.00;89.30;;;;;;5034449;28;20113;-67
2022/07/26 05:21:12;;;;;;;11.23;5.03;;;23.00;89.30;;;;;;5034405;28;20032;-67
2022/07/26 05:23:37;;;;;;;11.52;4.40;;;23.00;89.30;;;;;;5034083;28;20122;-66
2022/07/26 05:26:03;;;;;;;11.07;4.32;;;23.00;89.50;;;;;;5034077;28;20064;-67
2022/07/26 05:28:28;;;;;;;13.57;4.72;;;23.00;89.40;;;;;;5034361;28;20048;-66
2022/07/26 05:30:54;;;;;;;10.93;4.28;;;23.10;89.50;;;;;;5034105;28;20034;-66
2022/07/26 05:33:19;;;;;;;10.48;3.95;;;23.10;89.50;;;;;;5034207;28;20025;-66
2022/07/26 05:35:45;;;;;;;10.85;4.30;;;23.10;89.40;;;;;;5033806;28;20029;-67
2022/07/26 05:38:11;;;;;;;9.77;4.20;;;23.10;89.10;;;;;;5033787;28;20088;-66
2022/07/26 05:40:36;;;;;;;10.70;3.58;;;23.10;88.60;;;;;;5034703;28;20071;-67
2022/07/26 05:43:03;;;;;;;11.85;3.90;;;23.10;88.40;;;;;;5045978;28;20470;-69
2022/07/26 05:45:29;;;;;;;8.90;4.10;;;23.10;88.60;;;;;;5034471;28;20036;-66
2022/07/26 05:47:55;;;;;;;11.55;3.50;;;23.10;88.60;;;;;;5033446;28;20116;-68
2022/07/26 05:50:21;;;;;;;11.90;3.55;;;23.10;88.30;;;;;;5033934;28;20068;-66
2022/07/26 05:52:47;;;;;;;8.30;3.53;;;23.10;88.10;;;;;;5033817;28;20045;-66
2022/07/26 05:55:12;;;;;;;8.88;3.10;;;23.10;88.30;;;;;;5033707;28;20048;-66
2022/07/26 05:57:40;;;;;;;10.82;3.38;;;23.20;88.20;;;;;;5046023;28;20048;-66
2022/07/26 06:00:10;;;;;;;11.13;3.45;;;23.30;88.60;;;;;;5033744;28;20044;-67
2022/07/26 06:02:36;;;;;;;8.57;3.45;;;23.40;88.20;;;;;;5043825;28;20021;-66
2022/07/26 06:05:01;;;;;;;9.52;3.05;;;23.60;87.20;;;;;;5053562;28;20398;-68
2022/07/26 06:07:27;;;;;;;8.93;2.65;;;23.60;86.80;;;;;;5053290;28;20041;-66
2022/07/26 06:09:53;;;;;;;10.10;3.40;;;23.70;86.60;;;;;;5042157;28;20024;-68
2022/07/26 06:12:18;;;;;;;9.15;3.10;;;23.70;86.70;;;;;;5042017;28;20044;-67
2022/07/26 06:14:44;;;;;;;9.32;3.08;;;23.80;86.10;;;;;;5039021;28;20021;-68
2022/07/26 06:17:10;;;;;;;12.80;3.15;;;23.80;86.40;;;;;;5039911;28;20074;-67
2022/07/26 06:19:36;;;;;;;8.60;2.58;;;23.80;85.10;;;;;;5043435;28;20485;-67
2022/07/26 06:22:01;;;;;;;12.55;3.33;;;23.80;85.00;;;;;;5040674;28;20086;-67
2022/07/26 06:24:27;;;;;;;7.43;2.45;;;23.80;85.00;;;;;;5036518;28;20096;-67
2022/07/26 06:26:54;;;;;;;7.53;2.47;;;23.80;84.90;;;;;;5055125;28;20028;-71
2022/07/26 06:29:20;;;;;;;8.52;2.47;;;23.70;84.90;;;;;;5047070;28;20028;-68
2022/07/26 06:31:45;;;;;;;7.10;2.45;;;23.80;84.90;;;;;;5035989;28;20033;-68
2022/07/26 06:34:11;;;;;;;6.03;1.90;;;23.80;84.80;;;;;;5037447;28;20356;-67
2022/07/26 06:36:37;;;;;;;5.50;2.63;;;23.70;85.00;;;;;;5051157;28;20112;-66
2022/07/26 06:39:02;;;;;;;5.53;1.83;;;23.80;84.70;;;;;;5052070;28;20035;-67
2022/07/26 06:41:28;;;;;;;7.30;2.60;;;23.80;84.60;;;;;;5039474;28;20028;-67
2022/07/26 06:43:54;;;;;;;7.88;2.13;;;23.80;83.90;;;;;;5051751;28;20100;-69
2022/07/26 06:46:19;;;;;;;7.30;1.67;;;23.90;84.00;;;;;;5059466;28;20035;-70
2022/07/26 06:48:46;;;;;;;7.20;2.10;;;23.90;83.70;;;;;;5053463;28;20022;-67
2022/07/26 06:51:11;;;;;;;7.45;1.60;;;23.90;83.20;;;;;;5034737;28;20033;-67
2022/07/26 06:53:37;;;;;;;6.47;1.30;;;23.90;83.00;;;;;;5040898;28;20474;-70
2022/07/26 06:56:03;;;;;;;6.38;1.52;;;23.90;83.40;;;;;;5032451;28;20060;-68
2022/07/26 06:58:30;;;;;;;6.45;1.40;;;23.90;82.60;;;;;;5033080;28;20053;-67
2022/07/26 07:00:56;;;;;;;5.68;1.38;;;24.00;82.00;;;;;;5032952;28;20061;-67
2022/07/26 07:03:22;;;;;;;7.35;1.50;;;23.90;82.30;;;;;;5032590;28;20494;-69
2022/07/26 07:05:47;;;;;;;8.02;1.30;;;23.90;82.30;;;;;;5032860;28;20033;-69
2022/07/26 07:08:14;;;;;;;2.88;1.30;;;23.90;82.10;;;;;;5032306;28;20036;-66
2022/07/26 07:10:40;;;;;;;5.82;1.38;;;23.90;82.10;;;;;;5032572;28;20478;-67
2022/07/26 07:13:05;;;;;;;6.45;1.40;;;23.90;82.30;;;;;;5032885;28;20033;-67
2022/07/26 07:15:31;;;;;;;7.45;1.60;;;23.80;81.90;;;;;;5033954;28;20018;-66
2022/07/26 07:17:57;;;;;;;6.15;1.60;;;23.80;81.90;;;;;;5031158;28;20101;-66
2022/07/26 07:20:22;;;;;;;5.90;1.67;;;23.90;81.60;;;;;;5032769;28;20388;-66
2022/07/26 07:22:48;;;;;;;7.20;1.42;;;23.90;81.90;;;;;;5036161;28;20101;-67
2022/07/26 07:25:14;;;;;;;6.32;1.20;;;23.90;82.10;;;;;;5034755;28;20049;-66
2022/07/26 07:27:39;;;;;;;5.20;1.50;;;23.90;81.40;;;;;;5036776;28;20085;-67
2022/07/26 07:30:07;;;;;;;8.15;1.33;;;23.90;81.80;;;;;;5037806;28;20029;-67
2022/07/26 07:32:32;;;;;;;4.00;1.10;;;23.90;81.40;;;;;;5036653;28;20039;-67
2022/07/26 07:34:58;;;;;;;7.55;1.50;;;24.00;81.40;;;;;;5036657;28;20463;-67
2022/07/26 07:37:23;;;;;;;6.50;1.40;;;24.00;81.30;;;;;;5036126;28;20039;-69
2022/07/26 07:39:49;;;;;;;5.88;1.23;;;24.00;81.10;;;;;;5037678;28;20100;-69
2022/07/26 07:42:15;;;;;;;7.80;1.52;;;24.00;81.50;;;;;;5055284;28;20420;-69
2022/07/26 07:44:40;;;;;;;4.00;1.05;;;24.10;82.10;;;;;;5055477;28;20173;-69
2022/07/26 07:47:07;;;;;;;5.63;1.27;;;24.10;81.30;;;;;;5064065;28;20531;-69
2022/07/26 07:49:33;;;;;;;6.05;1.60;;;24.10;81.30;;;;;;5058498;28;20390;-66
2022/07/26 07:51:59;;;;;;;8.73;1.55;;;24.10;81.30;;;;;;5039831;28;20497;-69
2022/07/26 07:54:25;;;;;;;5.97;2.30;;;24.10;81.30;;;;;;5056041;28;20114;-69
2022/07/26 07:56:51;;;;;;;7.07;2.60;;;24.10;81.20;;;;;;5050721;28;20025;-68
2022/07/26 07:59:17;;;;;;;7.13;1.17;;;24.20;81.10;;;;;;5039007;28;20022;-67
2022/07/26 08:01:43;;;;;;;5.35;1.67;;;24.20;81.20;;;;;;5051323;28;20036;-67
2022/07/26 08:04:08;;;;;;;7.82;1.20;;;24.30;81.20;;;;;;5039224;28;20030;-68
2022/07/26 08:06:34;;;;;;;4.65;0.90;;;24.30;81.20;;;;;;5049558;28;20032;-66
2022/07/26 08:09:00;;;;;;;7.32;1.10;;;24.30;81.30;;;;;;5041995;28;20017;-68
2022/07/26 08:11:26;;;;;;;6.95;1.48;;;24.30;81.00;;;;;;5045030;28;20489;-68
2022/07/26 08:13:52;;;;;;;5.43;0.95;;;24.40;80.50;;;;;;5039710;28;20092;-66
2022/07/26 08:16:17;;;;;;;8.40;1.50;;;24.40;80.10;;;;;;5052878;28;20068;-67
2022/07/26 08:18:43;;;;;;;5.10;1.42;;;24.40;79.70;;;;;;5059957;28;20520;-68
2022/07/26 08:21:08;;;;;;;4.20;1.23;;;24.40;79.60;;;;;;5052476;28;20040;-68
2022/07/26 08:23:35;;;;;;;6.70;1.58;;;24.40;79.90;;;;;;5054584;28;20025;-69
2022/07/26 08:26:01;;;;;;;6.75;1.55;;;24.40;80.00;;;;;;5050970;28;20082;-69
2022/07/26 08:28:27;;;;;;;7.18;1.75;;;24.50;79.50;;;;;;5048340;28;20060;-69
2022/07/26 08:30:53;;;;;;;5.85;1.33;;;24.60;78.20;;;;;;5049816;28;20510;-68
2022/07/26 08:33:18;;;;;;;6.68;1.10;;;24.60;78.10;;;;;;5035660;28;20158;-66
2022/07/26 08:35:44;;;;;;;7.97;1.48;;;24.60;78.40;;;;;;5052188;28;20469;-66
2022/07/26 08:38:09;;;;;;;4.07;0.90;;;24.70;78.30;;;;;;5053149;28;20478;-66
2022/07/26 08:40:35;;;;;;;5.07;1.15;;;24.60;78.30;;;;;;5054333;28;20485;-66
2022/07/26 08:43:01;;;;;;;4.68;1.20;;;24.70;78.20;;;;;;5051137;28;20470;-68
2022/07/26 08:45:30;;;;;;;4.70;1.27;;;24.70;77.90;;;;;;5044975;28;20280;-70
2022/07/26 08:47:56;;;;;;;3.95;1.65;;;24.70;77.80;;;;;;5059126;28;20116;-71
2022/07/26 08:50:22;;;;;;;9.38;1.85;;;24.70;77.60;;;;;;5037879;28;20526;-70
2022/07/26 08:52:50;;;;;;;7.10;2.25;;;24.80;77.40;;;;;;5052194;28;20052;-70
2022/07/26 08:55:17;;;;;;;6.75;2.17;;;24.80;77.30;;;;;;5062759;28;20017;-69
2022/07/26 08:57:43;;;;;;;4.90;1.88;;;24.80;77.20;;;;;;5048688;28;20127;-67
2022/07/26 09:00:25;;;;;;;8.00;1.75;;;24.80;77.30;;;;;;5046267;28;20123;-69
2022/07/26 09:02:52;;;;;;;5.72;1.80;;;24.80;77.40;;;;;;5045696;28;20051;-69
2022/07/26 09:05:19;;;;;;;6.60;1.80;;;24.80;77.30;;;;;;5047143;28;20090;-66
2022/07/26 09:07:44;;;;;;;5.78;1.60;;;24.80;77.20;;;;;;5039707;28;20045;-67
2022/07/26 09:10:13;;;;;;;6.18;1.73;;;24.90;77.50;;;;;;5073340;28;20359;-66
2022/07/26 09:12:39;;;;;;;5.03;2.10;;;24.90;76.80;;;;;;5073556;28;20430;-67
2022/07/26 09:15:15;;;;;;;4.30;1.90;;;24.80;76.20;;;;;;5055343;28;20107;-67
2022/07/26 09:17:45;;;;;;;4.40;2.10;;;24.90;75.60;;;;;;5046350;28;20083;-68
2022/07/26 09:20:14;;;;;;;5.63;1.35;;;24.90;75.10;;;;;;5042865;28;20052;-67
2022/07/26 09:22:58;;;;;;;2.65;0.77;;;24.90;74.60;;;;;;5042574;28;20035;-68
2022/07/26 09:25:25;;;;;;;3.65;0.93;;;24.90;74.80;;;;;;5043952;28;20096;-66
2022/07/26 09:27:51;;;;;;;4.00;0.77;;;24.90;75.40;;;;;;5049611;28;20060;-68
2022/07/26 09:30:17;;;;;;;3.47;0.77;;;24.90;77.00;;;;;;5043443;28;20105;-67
2022/07/26 09:32:56;;;;;;;4.13;0.63;;;24.80;78.60;;;;;;5066371;28;20538;-67
2022/07/26 09:35:21;;;;;;;4.03;0.80;;;24.80;78.90;;;;;;5066587;28;20032;-66
2022/07/26 09:37:47;;;;;;;5.72;0.77;;;24.80;80.30;;;;;;5061054;28;20489;-67
2022/07/26 09:40:17;;;;;;;1.92;0.75;;;24.70;81.60;;;;;;5052881;28;20486;-65
2022/07/26 09:42:53;;;;;;;3.65;0.75;;;24.70;82.20;;;;;;5053099;28;20029;-67
2022/07/26 09:45:19;;;;;;;2.17;0.50;;;24.60;82.70;;;;;;5052842;28;20031;-67
2022/07/26 09:47:44;;;;;;;1.70;0.20;;;24.60;82.50;;;;;;5065587;28;20041;-65
2022/07/26 09:50:18;;;;;;;1.92;0.30;;;24.70;82.40;;;;;;5057256;28;20094;-67
2022/07/26 09:53:07;;;;;;;3.55;0.43;;;24.70;82.50;;;;;;5061314;28;20020;-67
2022/07/26 09:55:43;;;;;;;6.88;0.82;;;24.70;81.00;;;;;;5052198;28;20022;-68
2022/07/26 09:58:14;;;;;;;1.10;0.20;;;24.80;76.90;;;;;;5058412;28;20028;-66
2022/07/26 10:00:41;;;;;;;8.57;0.50;;;24.80;75.80;;;;;;5057447;28;20039;-67
2022/07/26 10:03:07;;;;;;;4.03;0.30;;;24.80;78.90;;;;;;5035390;28;20037;-66
2022/07/26 10:05:33;;;;;;;2.50;0.28;;;24.80;80.50;;;;;;5051287;28;20371;-69
2022/07/26 10:07:59;;;;;;;4.40;0.35;;;24.90;80.50;;;;;;5052956;28;20033;-65
2022/07/26 10:10:48;;;;;;;2.05;0.20;;;24.90;80.80;;;;;;5048696;28;20017;-66
2022/07/26 10:13:14;;;;;;;2.22;0.13;;;24.80;81.30;;;;;;5032140;28;20124;-67
2022/07/26 10:15:47;;;;;;;2.05;0.10;;;24.80;81.80;;;;;;5035781;28;20116;-66
2022/07/26 10:18:34;;;;;;;4.10;0.30;;;24.80;82.20;;;;;;5044750;28;20108;-69
2022/07/26 10:21:28;;;;;;;3.20;0.30;;;24.80;83.40;;;;;;5037257;28;20532;-68
2022/07/26 10:23:58;;;;;;;0.68;0.10;;;24.90;83.00;;;;;;5052168;28;20017;-68
2022/07/26 10:26:30;;;;;;;2.17;0.20;;;24.90;83.30;;;;;;5044295;28;20499;-68
2022/07/26 10:29:18;;;;;;;2.65;0.35;;;24.80;84.50;;;;;;5044122;28;20028;-65
2022/07/26 10:31:59;;;;;;;0.98;0.20;;;24.60;84.50;;;;;;5053289;28;20426;-68
2022/07/26 10:34:36;;;;;;;1.55;0.10;;;24.60;84.50;;;;;;5064473;28;20025;-65
2022/07/26 10:37:05;;;;;;;2.50;0.40;;;24.60;84.10;;;;;;5045104;28;20061;-66
2022/07/26 10:39:30;;;;;;;1.90;0.30;;;24.60;84.40;;;;;;5053310;28;20025;-66
2022/07/26 10:42:16;;;;;;;1.67;0.10;;;24.70;84.80;;;;;;5057087;28;20095;-66
2022/07/26 10:44:44;;;;;;;1.63;0.20;;;24.80;83.70;;;;;;5058931;28;20053;-69
2022/07/26 10:47:14;;;;;;;1.52;0.15;;;24.80;83.70;;;;;;5069503;28;20078;-66
2022/07/26 10:49:56;;;;;;;1.73;0.30;;;24.80;83.40;;;;;;5065071;28;20021;-66
2022/07/26 10:52:27;;;;;;;1.25;0.20;;;24.80;83.20;;;;;;5052303;28;20530;-68
2022/07/26 10:54:56;;;;;;;3.83;0.40;;;24.80;83.20;;;;;;5042354;28;20021;-68
2022/07/26 10:57:40;;;;;;;1.27;0.20;;;24.80;83.50;;;;;;5057488;28;20040;-69
2022/07/26 11:00:24;;;;;;;2.90;0.30;;;24.80;83.50;;;;;;5060343;28;20027;-69
2022/07/26 11:02:54;;;;;;;1.02;0.15;;;24.80;83.60;;;;;;5062141;28;20108;-66
2022/07/26 11:05:21;;;;;;;1.35;0.30;;;24.80;84.00;;;;;;5062745;28;20497;-65
2022/07/26 11:07:49;;;;;;;1.75;0.10;;;24.80;84.40;;;;;;5062423;28;20429;-67
2022/07/26 11:10:15;;;;;;;0.30;0.10;;;24.80;84.30;;;;;;5056323;28;20025;-67
2022/07/26 11:12:40;;;;;;;2.15;0.30;;;24.60;85.00;;;;;;5043453;28;20390;-66
2022/07/26 11:15:16;;;;;;;1.88;0.30;;;24.40;84.20;;;;;;5042208;28;20037;-69
2022/07/26 11:17:42;;;;;;;2.22;0.50;;;24.30;85.50;;;;;;5055001;28;20029;-66
2022/07/26 11:20:09;;;;;;;1.83;0.35;;;24.10;85.20;;;;;;5070570;28;20034;-68
2022/07/26 11:22:35;;;;;;;4.55;0.52;;;24.40;85.40;;;;;;5041724;28;20033;-65
2022/07/26 11:25:02;;;;;;;1.83;0.22;;;24.40;85.10;;;;;;5055488;28;20022;-66
2022/07/26 11:27:28;;;;;;;1.38;0.10;;;24.50;84.40;;;;;;5052720;28;20078;-66
2022/07/26 11:29:53;;;;;;;1.65;0.20;;;24.60;83.80;;;;;;5054477;28;20099;-66
2022/07/26 11:32:23;;;;;;;2.60;0.40;;;24.50;83.40;;;;;;5066623;28;20025;-66
2022/07/26 11:34:59;;;;;;;3.50;0.73;;;24.50;83.90;;;;;;5051281;28;20150;-66
2022/07/26 11:37:26;;;;;;;1.83;0.40;;;24.60;83.40;;;;;;5039277;28;20090;-66
2022/07/26 11:39:51;;;;;;;3.28;0.90;;;24.60;84.10;;;;;;5062361;28;20016;-66
2022/07/26 11:42:20;;;;;;;3.38;0.80;;;24.60;84.20;;;;;;5039475;28;20467;-66
2022/07/26 11:44:47;;;;;;;3.78;1.13;;;24.70;84.00;;;;;;5045389;28;20024;-66
2022/07/26 11:47:21;;;;;;;8.40;1.75;;;24.70;84.10;;;;;;5058776;28;20125;-66
2022/07/26 11:49:47;;;;;;;5.80;1.10;;;24.70;85.30;;;;;;5043207;28;20029;-66
2022/07/26 11:52:14;;;;;;;2.50;0.80;;;24.80;85.30;;;;;;5060685;28;20391;-66
2022/07/26 11:55:06;;;;;;;3.47;0.90;;;24.80;84.00;;;;;;5055284;28;20020;-66
2022/07/26 11:57:32;;;;;;;2.85;0.70;;;24.80;84.50;;;;;;5060332;28;20505;-66
2022/07/26 11:59:58;;;;;;;2.72;0.50;;;24.60;83.70;;;;;;5064640;28;20050;-66
2022/07/26 12:02:25;;;;;;;1.05;0.50;;;24.40;84.20;;;;;;5051891;28;20107;-66
2022/07/26 12:05:15;;;;;;;4.65;0.73;;;24.30;85.30;;;;;;5048278;28;20067;-65
2022/07/26 12:08:02;;;;;;;3.33;0.80;;;24.30;86.90;;;;;;5039925;28;20371;-66
2022/07/26 12:10:28;;;;;;;2.17;0.50;;;24.40;88.00;;;;;;5053035;28;20038;-66
2022/07/26 12:13:14;;;;;;;2.47;0.70;;;24.60;87.40;;;;;;5038259;28;20187;-66
2022/07/26 12:15:51;;;;;;;2.45;0.60;;;24.50;87.70;;;;;;5042321;28;20049;-66
2022/07/26 12:18:27;;;;;;;2.92;0.88;;;24.60;87.30;;;;;;5043833;28;20029;-66
2022/07/26 12:21:07;;;;;;;4.78;0.85;;;24.60;87.10;;;;;;5051437;28;20108;-66
2022/07/26 12:23:44;;;;;;;3.63;1.10;;;24.60;87.00;;;;;;5047831;28;20029;-65
2022/07/26 12:26:27;;;;;;;4.00;0.98;;;24.60;87.30;;;;;;5036988;28;20095;-66
2022/07/26 12:28:54;;;;;;;5.22;0.80;;;24.60;86.40;;;;;;5042896;28;20394;-66
2022/07/26 12:31:27;;;;;;;5.32;1.08;;;24.60;86.20;;;;;;5045689;28;20033;-66
2022/07/26 12:33:53;;;;;;;5.28;0.93;;;24.70;86.80;;;;;;5053277;28;20025;-65
2022/07/26 12:36:20;;;;;;;5.70;1.00;;;24.60;85.90;;;;;;5044708;28;20396;-66
2022/07/26 12:38:46;;;;;;;2.35;0.65;;;24.70;86.30;;;;;;5044975;28;20037;-66
2022/07/26 12:41:29;;;;;;;3.70;1.00;;;24.60;86.50;;;;;;5061522;28;20023;-66
2022/07/26 12:43:54;;;;;;;4.50;0.60;;;24.60;86.90;;;;;;5044227;28;20459;-66
2022/07/26 12:46:20;;;;;;;5.57;1.05;;;24.60;86.60;;;;;;5054679;28;20123;-66
2022/07/26 12:48:45;;;;;;;4.88;0.75;;;24.60;86.40;;;;;;5057375;28;20039;-66